Time;durP1;ratioP1;P1;durP2;ratioP2;P2;SDS_P1;SDS_P2;PMS_P1;PMS_P2;Temp;Humidity;BMP_temperature;BMP_pressure;BME280_temperature;BME280_humidity;BME280_pressure;Samples;Min_cycle;Max_cycle;Signal;HPM_P1;HPM_P2
2022/08/13 00:01:30;;;;;;;4.90;1.80;;;;;;;18.57;53.19;101177.27;107330;1282;72289;-82
2022/08/13 00:04:01;;;;;;;5.50;1.90;;;;;;;18.55;53.39;101182.33;107245;1282;73121;-82
2022/08/13 00:09:21;;;;;;;8.10;2.10;;;;;;;18.49;53.63;101178.86;107265;1281;60684;-82
2022/08/13 00:14:59;;;;;;;5.20;1.70;;;;;;;18.44;53.86;101185.79;107342;1282;71613;-83
2022/08/13 00:17:31;;;;;;;5.00;1.90;;;;;;;18.39;54.03;101179.08;107391;1282;72853;-83
2022/08/13 00:20:22;;;;;;;6.40;2.10;;;;;;;18.35;54.36;101184.06;107058;1283;62616;-83
2022/08/13 00:22:54;;;;;;;5.40;1.80;;;;;;;18.30;54.78;101179.38;107495;1284;60409;-82
2022/08/13 00:25:27;;;;;;;4.50;2.00;;;;;;;18.26;55.02;101175.33;107468;1284;74098;-83
2022/08/13 00:28:15;;;;;;;3.50;1.90;;;;;;;18.20;55.33;101175.41;106842;1284;71166;-82
2022/08/13 00:30:43;;;;;;;3.60;1.90;;;;;;;18.16;55.56;101177.25;107051;1284;72995;-82
2022/08/13 00:33:18;;;;;;;4.40;1.70;;;;;;;18.12;55.65;101171.69;107195;1284;60489;-82
2022/08/13 00:35:59;;;;;;;3.60;1.90;;;;;;;18.09;55.60;101169.21;107171;1284;60669;-82
2022/08/13 00:38:29;;;;;;;4.00;1.90;;;;;;;18.07;55.58;101167.40;107201;1283;76682;-83
2022/08/13 00:41:07;;;;;;;6.70;2.00;;;;;;;18.03;56.22;101165.27;107171;1283;71433;-83
2022/08/13 00:43:47;;;;;;;5.30;2.20;;;;;;;17.98;56.28;101162.98;107274;1282;72970;-84
2022/08/13 00:46:14;;;;;;;4.20;2.00;;;;;;;17.94;56.24;101164.10;107199;1282;62081;-83
2022/08/13 00:48:43;;;;;;;5.70;1.80;;;;;;;17.91;56.32;101171.31;106898;1284;63250;-82
2022/08/13 00:51:26;;;;;;;5.70;1.90;;;;;;;17.85;56.55;101163.28;107580;1283;75967;-82
2022/08/13 00:54:17;;;;;;;5.50;1.90;;;;;;;17.79;57.05;101164.59;107686;1283;72670;-82
2022/08/13 00:56:46;;;;;;;6.50;2.00;;;;;;;17.74;57.38;101163.00;107633;1284;73591;-82
2022/08/13 00:59:14;;;;;;;4.60;2.00;;;;;;;17.70;57.56;101163.48;107485;1283;62423;-82
2022/08/13 01:01:45;;;;;;;7.90;2.30;;;;;;;17.65;57.81;101157.69;107392;1284;60599;-82
2022/08/13 01:04:20;;;;;;;6.90;2.10;;;;;;;17.61;57.99;101160.85;107652;1284;75893;-82
2022/08/13 01:06:56;;;;;;;7.20;2.10;;;;;;;17.57;58.19;101155.27;107544;1284;70601;-82
2022/08/13 01:09:29;;;;;;;6.60;2.20;;;;;;;17.54;58.18;101154.04;107658;1283;73010;-82
2022/08/13 01:12:21;;;;;;;5.00;2.20;;;;;;;17.51;58.27;101155.12;107779;1284;63974;-82
2022/08/13 01:14:54;;;;;;;5.50;2.50;;;;;;;17.49;58.19;101152.52;107747;1283;62593;-82
2022/08/13 01:17:23;;;;;;;3.90;2.30;;;;;;;17.49;58.14;101154.07;107656;1282;75632;-82
2022/08/13 01:20:18;;;;;;;4.50;1.90;;;;;;;17.47;58.20;101151.91;107833;1280;71322;-82
2022/08/13 01:23:00;;;;;;;5.70;2.60;;;;;;;17.46;58.28;101154.91;107713;1283;73056;-82
2022/08/13 01:25:30;;;;;;;5.70;2.00;;;;;;;17.45;58.29;101154.15;107703;1282;62959;-81
2022/08/13 01:28:18;;;;;;;3.80;1.90;;;;;;;17.43;58.48;101156.21;107906;1282;62178;-81
2022/08/13 01:30:46;;;;;;;4.00;2.10;;;;;;;17.40;58.59;101154.73;107685;1282;75655;-82
2022/08/13 01:33:17;;;;;;;5.90;2.10;;;;;;;17.39;58.48;101158.25;107741;1282;71137;-82
2022/08/13 01:35:47;;;;;;;4.80;2.70;;;;;;;17.39;58.71;101156.25;107722;1282;72930;-81
2022/08/13 01:38:22;;;;;;;5.10;2.30;;;;;;;17.39;58.56;101155.27;107551;1282;62104;-81
2022/08/13 01:40:53;;;;;;;4.70;1.70;;;;;;;17.39;58.71;101155.44;107716;1282;60653;-81
2022/08/13 01:43:20;;;;;;;4.40;2.00;;;;;;;17.37;58.94;101155.72;107736;1281;76923;-82
2022/08/13 01:45:51;;;;;;;4.70;1.80;;;;;;;17.34;58.93;101156.44;106962;1282;71409;-82
2022/08/13 01:51:23;;;;;;;6.10;1.90;;;;;;;17.30;59.10;101157.18;107205;1282;66308;-82
2022/08/13 01:53:59;;;;;;;8.80;2.30;;;;;;;17.27;59.36;101154.54;107169;1282;62279;-82
2022/08/13 01:56:29;;;;;;;4.90;2.00;;;;;;;17.24;59.52;101158.84;107421;1282;74761;-82
2022/08/13 01:59:01;;;;;;;4.10;1.90;;;;;;;17.20;59.59;101155.78;107148;1282;71634;-82
2022/08/13 02:01:36;;;;;;;6.20;2.20;;;;;;;17.18;59.78;101158.63;107161;1283;72823;-81
2022/08/13 02:04:15;;;;;;;5.10;2.10;;;;;;;17.15;59.95;101158.10;107290;1282;64339;-82
2022/08/13 02:06:52;;;;;;;5.20;1.90;;;;;;;17.11;60.12;101164.45;107155;1284;62210;-82
2022/08/13 02:09:23;;;;;;;6.60;2.10;;;;;;;17.09;60.24;101168.58;107227;1281;75796;-82
2022/08/13 02:12:13;;;;;;;6.00;2.30;;;;;;;17.03;60.75;101175.59;107329;1284;73297;-82
2022/08/13 02:15:03;;;;;;;5.20;2.00;;;;;;;16.95;60.84;101166.35;106670;1284;76064;-83
2022/08/13 02:17:33;;;;;;;7.90;2.00;;;;;;;16.87;61.17;101170.46;106746;1280;62103;-82
2022/08/13 02:20:20;;;;;;;4.70;2.60;;;;;;;16.80;61.57;101177.45;107187;1282;63994;-81
2022/08/13 02:22:49;;;;;;;5.30;2.00;;;;;;;16.73;61.95;101167.45;107119;1283;76485;-81
2022/08/13 02:25:20;;;;;;;4.40;2.10;;;;;;;16.68;62.18;101159.53;106975;1282;73727;-83
2022/08/13 02:27:48;;;;;;;4.50;2.10;;;;;;;16.63;62.19;101166.52;106893;1283;73784;-82
2022/08/13 02:30:27;;;;;;;3.50;2.20;;;;;;;16.62;62.35;101162.28;107191;1282;63314;-81
2022/08/13 02:32:56;;;;;;;4.30;2.30;;;;;;;16.62;62.19;101160.47;107082;1281;62062;-82
2022/08/13 02:35:24;;;;;;;4.30;2.30;;;;;;;16.63;62.06;101167.09;106843;1282;74863;-82
2022/08/13 02:38:06;;;;;;;4.50;2.10;;;;;;;16.62;62.11;101163.57;107181;1282;71178;-82
2022/08/13 02:43:42;;;;;;;4.40;2.10;;;;;;;16.57;62.27;101163.52;106764;1282;62414;-82
2022/08/13 02:46:25;;;;;;;5.00;2.20;;;;;;;16.52;62.13;101155.38;107064;1282;60225;-81
2022/08/13 02:48:58;;;;;;;3.60;2.10;;;;;;;16.47;62.21;101155.91;107166;1284;75458;-81
2022/08/13 02:51:26;;;;;;;3.00;1.90;;;;;;;16.41;62.34;101156.59;107202;1282;71605;-82
2022/08/13 02:54:16;;;;;;;4.20;1.90;;;;;;;16.36;62.61;101153.64;107110;1282;75266;-82
2022/08/13 02:56:46;;;;;;;4.90;1.80;;;;;;;16.32;62.64;101151.63;107117;1280;63745;-81
2022/08/13 02:59:13;;;;;;;5.20;2.00;;;;;;;16.29;62.61;101149.96;107131;1282;61855;-81
2022/08/13 03:02:01;;;;;;;4.70;1.80;;;;;;;16.27;62.82;101144.85;106968;1281;78084;-81
2022/08/13 03:04:32;;;;;;;5.40;2.00;;;;;;;16.25;62.81;101145.39;106923;1282;71384;-82
2022/08/13 03:07:00;;;;;;;4.60;2.00;;;;;;;16.22;63.03;101144.71;107065;1282;73177;-81
2022/08/13 03:09:28;;;;;;;4.30;1.90;;;;;;;16.20;63.24;101148.83;107018;1282;63105;-81
2022/08/13 03:11:59;;;;;;;4.00;1.90;;;;;;;16.19;63.30;101148.98;107108;1282;62099;-81
2022/08/13 03:14:32;;;;;;;3.70;1.80;;;;;;;16.17;63.46;101148.12;106711;1281;74801;-81
2022/08/13 03:16:59;;;;;;;4.90;2.10;;;;;;;16.14;63.55;101150.34;107057;1281;73172;-82
2022/08/13 03:19:28;;;;;;;4.00;2.00;;;;;;;16.12;63.68;101153.61;107032;1282;74095;-81
2022/08/13 03:21:56;;;;;;;3.20;1.80;;;;;;;16.12;63.84;101148.67;107145;1282;62481;-81
2022/08/13 03:24:26;;;;;;;4.10;2.00;;;;;;;16.12;63.84;101150.00;107321;1282;60980;-81
2022/08/13 03:26:59;;;;;;;4.40;1.90;;;;;;;16.12;64.05;101148.14;107311;1282;77095;-81
2022/08/13 03:29:28;;;;;;;5.00;2.00;;;;;;;16.12;64.17;101146.57;107061;1283;70384;-81
2022/08/13 03:32:19;;;;;;;3.80;2.30;;;;;;;16.11;64.24;101153.66;106979;1282;74292;-82
2022/08/13 03:34:59;;;;;;;2.80;2.00;;;;;;;16.08;64.20;101154.92;107156;1282;62030;-82
2022/08/13 03:37:37;;;;;;;3.90;1.90;;;;;;;16.05;64.29;101152.67;106944;1280;61828;-82
2022/08/13 03:40:06;;;;;;;3.90;1.80;;;;;;;16.03;64.28;101151.57;107094;1282;76076;-81
2022/08/13 03:42:34;;;;;;;4.70;2.00;;;;;;;16.03;64.49;101149.38;107136;1281;71516;-81
2022/08/13 03:45:21;;;;;;;4.10;2.20;;;;;;;16.01;64.51;101144.73;107379;1282;72901;-81
2022/08/13 03:47:49;;;;;;;5.80;2.70;;;;;;;16.01;64.66;101142.62;107482;1283;61980;-82
2022/08/13 03:50:17;;;;;;;3.80;2.00;;;;;;;16.01;64.57;101142.30;107691;1282;61883;-81
2022/08/13 03:52:46;;;;;;;4.00;2.10;;;;;;;16.00;65.03;101142.63;107740;1281;75497;-81
2022/08/13 03:55:15;;;;;;;4.70;2.00;;;;;;;15.97;65.10;101138.81;107529;1282;71895;-81
2022/08/13 03:57:44;;;;;;;3.60;2.10;;;;;;;15.95;65.41;101137.33;107753;1281;72906;-80
2022/08/13 04:00:34;;;;;;;4.20;2.30;;;;;;;15.90;65.54;101137.96;107690;1282;63800;-81
2022/08/13 04:03:13;;;;;;;4.90;2.20;;;;;;;15.87;65.54;101136.77;106945;1281;61884;-82
2022/08/13 04:05:42;;;;;;;4.20;2.10;;;;;;;15.84;65.67;101136.70;107026;1280;75740;-81
2022/08/13 04:08:25;;;;;;;6.30;2.30;;;;;;;15.83;65.84;101135.84;106676;1281;71632;-81
2022/08/13 04:10:55;;;;;;;5.40;2.30;;;;;;;15.82;66.08;101137.23;106662;1284;73130;-81
2022/08/13 04:13:24;;;;;;;5.70;2.40;;;;;;;15.82;65.99;101136.13;107023;1280;63449;-81
2022/08/13 04:16:22;;;;;;;4.40;2.40;;;;;;;15.83;66.18;101139.75;106959;1282;62100;-81
2022/08/13 04:18:56;;;;;;;5.70;2.50;;;;;;;15.82;66.15;101139.66;106890;1282;77232;-81
2022/08/13 04:21:28;;;;;;;5.30;2.40;;;;;;;15.83;66.35;101140.49;106841;1281;71411;-81
2022/08/13 04:23:57;;;;;;;4.90;2.20;;;;;;;15.83;66.26;101139.75;107263;1282;72925;-81
2022/08/13 04:26:26;;;;;;;3.90;2.50;;;;;;;15.82;66.29;101139.30;107111;1281;62322;-81
2022/08/13 04:29:04;;;;;;;4.70;2.70;;;;;;;15.84;66.23;101139.09;107057;1281;61994;-81
2022/08/13 04:31:33;;;;;;;4.10;2.10;;;;;;;15.88;66.37;101143.55;107240;1281;74975;-81
2022/08/13 04:34:15;;;;;;;5.90;2.30;;;;;;;15.93;66.19;101144.16;107023;1282;71292;-81
2022/08/13 04:37:02;;;;;;;5.40;2.40;;;;;;;15.99;65.96;101145.25;107246;1281;75165;-81
2022/08/13 04:39:30;;;;;;;5.50;2.30;;;;;;;16.04;65.99;101139.52;107228;1282;63058;-81
2022/08/13 04:42:18;;;;;;;5.30;2.20;;;;;;;16.11;65.60;101138.60;107170;1283;64440;-81
2022/08/13 04:44:58;;;;;;;4.30;2.40;;;;;;;16.18;65.61;101139.67;107066;1282;78136;-81
2022/08/13 04:47:30;;;;;;;4.10;2.10;;;;;;;16.24;65.27;101133.85;107106;1282;71907;-81
2022/08/13 04:49:57;;;;;;;7.40;2.20;;;;;;;16.29;65.00;101132.25;106811;1282;72977;-81
2022/08/13 04:52:25;;;;;;;5.80;2.60;;;;;;;16.36;64.83;101129.51;106875;1283;63574;-80
2022/08/13 04:54:56;;;;;;;4.10;2.20;;;;;;;16.44;64.82;101133.94;107330;1282;60895;-81
2022/08/13 04:57:23;;;;;;;4.20;2.40;;;;;;;16.53;64.56;101130.20;107182;1282;75467;-80
2022/08/13 05:00:11;;;;;;;4.10;2.30;;;;;;;16.63;64.25;101130.72;107150;1281;72699;-81
2022/08/13 05:02:40;;;;;;;4.30;2.20;;;;;;;16.72;64.11;101132.38;107053;1282;72472;-81
2022/08/13 05:05:11;;;;;;;7.30;2.80;;;;;;;16.82;63.99;101129.60;106901;1281;61805;-81
2022/08/13 05:07:47;;;;;;;5.50;2.30;;;;;;;16.93;63.83;101126.72;106688;1282;62184;-81
2022/08/13 05:10:19;;;;;;;4.50;2.30;;;;;;;17.02;63.66;101123.39;107159;1281;75645;-81
2022/08/13 05:13:03;;;;;;;4.80;2.20;;;;;;;17.10;63.49;101126.02;106830;1282;72676;-81
2022/08/13 05:15:31;;;;;;;4.90;2.30;;;;;;;17.18;63.38;101127.13;107242;1281;73596;-81
2022/08/13 05:18:08;;;;;;;3.10;2.20;;;;;;;17.24;63.17;101128.31;106972;1282;62220;-81
2022/08/13 05:20:48;;;;;;;5.90;2.30;;;;;;;17.30;62.75;101129.83;107412;1282;60605;-81
2022/08/13 05:23:19;;;;;;;3.20;2.20;;;;;;;17.39;62.60;101135.55;106924;1282;76985;-81
2022/08/13 05:26:10;;;;;;;3.10;2.20;;;;;;;17.48;62.31;101136.92;107049;1282;73517;-81
2022/08/13 05:29:05;;;;;;;3.50;2.20;;;;;;;17.54;61.87;101138.85;106920;1284;76256;-81
2022/08/13 05:31:35;;;;;;;3.20;2.00;;;;;;;17.61;61.56;101140.66;107053;1282;62013;-81
2022/08/13 05:34:27;;;;;;;4.10;2.30;;;;;;;17.73;61.22;101139.71;106878;1282;62574;-81
2022/08/13 05:36:55;;;;;;;3.50;2.10;;;;;;;17.84;61.08;101139.79;106964;1282;77071;-82
2022/08/13 05:39:43;;;;;;;3.80;2.20;;;;;;;17.98;60.84;101138.92;107184;1282;73774;-82
2022/08/13 05:42:16;;;;;;;4.30;2.20;;;;;;;18.12;60.13;101136.66;107176;1282;74149;-82
2022/08/13 05:44:47;;;;;;;3.40;2.30;;;;;;;18.24;59.69;101137.63;106740;1282;62241;-81
2022/08/13 05:47:15;;;;;;;3.90;2.30;;;;;;;18.37;59.00;101135.29;107280;1282;62116;-81
2022/08/13 05:49:43;;;;;;;4.70;2.10;;;;;;;18.50;58.62;101135.19;107319;1282;76077;-81
2022/08/13 05:52:26;;;;;;;3.90;2.10;;;;;;;18.64;58.28;101137.05;107115;1282;71289;-82
2022/08/13 05:55:07;;;;;;;4.30;2.30;;;;;;;18.80;57.74;101143.06;107009;1281;72735;-81
2022/08/13 05:57:54;;;;;;;3.50;2.20;;;;;;;18.95;57.31;101138.42;106891;1282;63862;-81
2022/08/13 06:03:24;;;;;;;3.90;2.10;;;;;;;19.23;56.56;101143.05;107064;1281;77094;-82
2022/08/13 06:06:14;;;;;;;3.40;2.30;;;;;;;19.38;56.42;101138.08;107166;1282;73128;-82
2022/08/13 06:08:50;;;;;;;3.80;2.30;;;;;;;19.48;55.78;101133.73;106848;1284;73985;-82
2022/08/13 06:11:18;;;;;;;3.60;2.30;;;;;;;19.59;55.94;101135.65;107147;1281;60500;-82
2022/08/13 06:14:05;;;;;;;4.20;2.30;;;;;;;19.73;55.34;101133.83;107118;1282;63514;-82
2022/08/13 06:16:35;;;;;;;3.40;2.00;;;;;;;19.84;54.95;101131.45;107108;1282;75876;-82
2022/08/13 06:19:25;;;;;;;4.80;2.20;;;;;;;20.01;54.79;101131.54;107136;1281;71662;-82
2022/08/13 06:22:02;;;;;;;3.60;2.00;;;;;;;20.17;54.70;101129.35;107115;1281;73085;-82
2022/08/13 06:24:32;;;;;;;3.40;2.30;;;;;;;20.34;54.59;101130.55;107234;1282;60689;-82
2022/08/13 06:27:04;;;;;;;6.60;2.40;;;;;;;20.46;54.15;101129.95;107139;1282;61824;-82
2022/08/13 06:29:43;;;;;;;3.20;2.40;;;;;;;20.59;54.25;101128.63;107053;1282;75752;-82
2022/08/13 06:32:20;;;;;;;4.10;2.40;;;;;;;20.69;54.09;101130.48;107107;1281;72401;-82
2022/08/13 06:35:08;;;;;;;4.50;2.10;;;;;;;20.82;53.84;101135.83;107264;1282;76100;-82
2022/08/13 06:37:41;;;;;;;4.70;2.30;;;;;;;20.95;53.51;101131.84;107038;1282;61889;-82
2022/08/13 06:40:20;;;;;;;6.40;2.20;;;;;;;21.11;52.76;101135.30;107039;1282;61490;-82
2022/08/13 06:43:01;;;;;;;3.90;2.30;;;;;;;21.21;52.54;101136.77;107123;1282;75717;-82
2022/08/13 06:45:29;;;;;;;4.30;2.00;;;;;;;21.35;52.40;101134.13;107204;1281;71791;-82
2022/08/13 06:48:03;;;;;;;4.60;2.20;;;;;;;21.52;51.88;101131.71;107095;1282;74016;-82
2022/08/13 06:50:34;;;;;;;4.80;2.10;;;;;;;21.65;51.79;101129.02;107073;1284;60977;-82
2022/08/13 06:53:13;;;;;;;4.80;2.20;;;;;;;21.80;51.35;101129.75;107354;1281;61928;-82
2022/08/13 06:56:07;;;;;;;5.30;1.90;;;;;;;21.96;50.98;101133.84;106852;1284;77109;-82
2022/08/13 06:58:58;;;;;;;4.80;2.30;;;;;;;22.13;50.85;101134.33;107179;1281;73332;-83
2022/08/13 07:01:27;;;;;;;3.00;2.00;;;;;;;22.29;50.23;101133.75;106921;1282;74375;-82
2022/08/13 07:04:19;;;;;;;5.90;2.40;;;;;;;22.47;49.57;101136.98;107022;1282;62113;-83
2022/08/13 07:06:57;;;;;;;5.00;2.10;;;;;;;22.63;48.94;101140.14;107154;1282;61051;-83
2022/08/13 07:09:24;;;;;;;5.70;2.60;;;;;;;22.79;48.52;101142.24;106992;1282;75038;-82
2022/08/13 07:12:07;;;;;;;5.30;2.20;;;;;;;22.98;48.31;101142.93;107079;1281;71551;-82
2022/08/13 07:14:36;;;;;;;5.00;2.10;;;;;;;23.15;47.46;101146.34;106645;1282;73041;-82
2022/08/13 07:17:03;;;;;;;5.60;2.20;;;;;;;23.28;47.00;101147.29;107183;1282;60451;-82
2022/08/13 07:19:30;;;;;;;6.60;2.20;;;;;;;23.40;47.09;101146.54;106710;1284;61808;-82
2022/08/13 07:22:17;;;;;;;4.60;2.50;;;;;;;23.51;46.40;101151.02;107234;1281;77457;-82
2022/08/13 07:25:05;;;;;;;4.50;2.30;;;;;;;23.64;46.98;101146.75;106987;1282;74161;-82
2022/08/13 07:27:39;;;;;;;5.90;2.10;;;;;;;23.80;46.83;101146.27;107248;1281;73844;-83
2022/08/13 07:30:14;;;;;;;5.90;2.10;;;;;;;24.02;46.74;101146.16;107140;1282;60722;-83
2022/08/13 07:32:42;;;;;;;5.70;2.20;;;;;;;24.17;45.83;101146.98;107142;1282;61839;-83
2022/08/13 07:35:11;;;;;;;5.70;2.20;;;;;;;24.31;45.88;101145.33;106979;1282;77603;-83
2022/08/13 07:37:45;;;;;;;6.30;2.30;;;;;;;24.40;45.80;101139.02;106770;1282;71628;-83
2022/08/13 07:40:19;;;;;;;3.10;1.80;;;;;;;24.56;45.00;101141.48;107132;1282;72507;-82
2022/08/13 07:42:49;;;;;;;7.50;2.30;;;;;;;24.67;44.58;101139.78;107190;1281;62236;-83
2022/08/13 07:45:27;;;;;;;6.30;2.10;;;;;;;24.73;44.32;101137.50;107053;1282;61648;-83
2022/08/13 07:48:14;;;;;;;3.20;1.70;;;;;;;24.83;43.88;101136.05;107063;1284;77466;-82
2022/08/13 07:51:08;;;;;;;4.10;1.90;;;;;;;24.94;43.76;101134.73;107244;1282;74165;-82
2022/08/13 07:53:41;;;;;;;4.50;2.10;;;;;;;25.08;43.76;101132.65;107106;1282;74251;-82
2022/08/13 07:56:28;;;;;;;4.10;1.80;;;;;;;25.31;43.90;101133.68;106938;1282;61994;-83
2022/08/13 07:59:11;;;;;;;3.10;1.70;;;;;;;25.47;43.13;101134.26;107024;1281;60769;-86
2022/08/13 08:01:46;;;;;;;5.70;1.90;;;;;;;25.54;42.56;101138.48;107034;1282;74873;-84
2022/08/13 08:04:35;;;;;;;6.30;2.00;;;;;;;25.65;42.24;101137.67;107159;1282;72282;-87
2022/08/13 08:07:09;;;;;;;4.30;1.90;;;;;;;25.79;42.43;101138.33;107189;1282;72813;-85
2022/08/13 08:09:36;;;;;;;7.80;2.50;;;;;;;25.98;42.19;101140.10;107587;1281;62320;-84
2022/08/13 08:14:54;;;;;;;5.30;1.90;;;;;;;26.35;41.40;101141.54;107599;1281;74110;-87
2022/08/13 08:17:26;;;;;;;4.80;1.70;;;;;;;26.50;41.08;101143.89;107372;1281;73183;-82
2022/08/13 08:20:21;;;;;;;3.00;1.80;;;;;;;26.65;40.29;101139.64;107620;1282;71561;-82
2022/08/13 08:23:11;;;;;;;3.70;1.90;;;;;;;26.83;40.17;101140.00;107585;1282;62051;-82
2022/08/13 08:25:39;;;;;;;4.00;1.70;;;;;;;26.95;39.74;101142.45;107557;1282;60602;-83
2022/08/13 08:28:30;;;;;;;3.40;1.80;;;;;;;27.02;39.46;101138.86;107807;1281;77678;-82
2022/08/13 08:31:07;;;;;;;4.20;2.00;;;;;;;27.15;39.71;101142.86;107172;1282;72609;-83
2022/08/13 08:33:56;;;;;;;4.40;1.90;;;;;;;27.37;39.75;101147.48;107160;1282;72927;-83
2022/08/13 08:36:23;;;;;;;4.80;1.80;;;;;;;27.54;39.16;101148.17;107146;1282;60841;-83
2022/08/13 08:44:41;;;;;;;4.40;2.20;;;;;;;28.06;38.76;101146.23;107329;1282;71373;-84
2022/08/13 08:47:10;;;;;;;3.30;1.80;;;;;;;28.23;38.50;101146.67;106949;1281;73239;-85
2022/08/13 08:49:39;;;;;;;3.20;1.90;;;;;;;28.36;38.23;101147.78;106813;1282;60429;-84
2022/08/13 08:52:11;;;;;;;5.70;1.90;;;;;;;28.46;37.63;101148.42;106808;1281;62275;-84
2022/08/13 08:54:43;;;;;;;3.00;1.80;;;;;;;28.54;37.72;101147.25;106942;1282;77959;-84
2022/08/13 08:57:18;;;;;;;5.30;2.10;;;;;;;28.67;37.49;101147.31;107037;1282;72013;-84
2022/08/13 08:59:48;;;;;;;4.80;1.90;;;;;;;28.78;37.35;101139.02;106621;1283;73399;-84
2022/08/13 09:02:24;;;;;;;4.50;1.80;;;;;;;28.91;37.13;101141.13;106902;1281;62108;-84
2022/08/13 09:04:54;;;;;;;4.60;1.80;;;;;;;29.03;36.61;101136.06;107143;1282;62309;-84
2022/08/13 09:07:27;;;;;;;5.90;1.70;;;;;;;29.15;36.63;101132.90;106879;1282;76012;-83
2022/08/13 09:09:58;;;;;;;3.30;1.80;;;;;;;29.28;36.45;101131.96;106884;1281;72509;-85
2022/08/13 09:12:26;;;;;;;4.40;1.80;;;;;;;29.35;36.60;101126.40;106798;1282;73019;-84
2022/08/13 09:14:56;;;;;;;3.00;1.90;;;;;;;29.42;36.20;101124.13;107509;1281;60631;-84
2022/08/13 09:17:24;;;;;;;3.30;2.00;;;;;;;29.54;35.99;101122.50;106788;1282;62245;-83
2022/08/13 09:20:13;;;;;;;2.90;1.80;;;;;;;29.65;35.84;101124.55;106769;1284;75809;-85
2022/08/13 09:22:44;;;;;;;4.70;1.80;;;;;;;29.74;35.59;101120.00;106760;1284;72645;-84
2022/08/13 09:25:24;;;;;;;5.30;1.90;;;;;;;29.80;35.30;101119.80;107027;1284;74276;-82
2022/08/13 09:27:52;;;;;;;5.50;2.10;;;;;;;29.83;35.42;101112.16;106726;1284;62088;-83
2022/08/13 09:30:42;;;;;;;3.50;2.00;;;;;;;29.86;35.84;101112.50;106885;1282;59621;-83
2022/08/13 09:33:15;;;;;;;3.20;1.90;;;;;;;29.92;35.95;101110.45;106717;1284;75784;-83
2022/08/13 09:36:03;;;;;;;3.10;1.90;;;;;;;30.02;35.69;101108.72;106981;1284;73449;-83
2022/08/13 09:38:34;;;;;;;2.60;1.80;;;;;;;30.15;35.52;101105.41;107055;1282;73067;-83
2022/08/13 09:41:27;;;;;;;5.00;1.90;;;;;;;30.28;35.05;101107.25;106885;1284;60399;-83
2022/08/13 09:43:57;;;;;;;2.60;1.80;;;;;;;30.34;34.78;101106.73;106994;1284;60426;-83
2022/08/13 09:46:24;;;;;;;3.70;2.20;;;;;;;30.43;35.07;101101.71;106948;1284;75829;-84
2022/08/13 09:48:56;;;;;;;4.30;2.40;;;;;;;30.45;35.14;101099.37;107111;1284;71416;-82
2022/08/13 09:51:31;;;;;;;4.20;2.00;;;;;;;30.48;35.23;101100.46;106908;1284;73133;-83
2022/08/13 09:54:20;;;;;;;4.60;2.20;;;;;;;30.57;35.16;101097.70;107268;1284;62177;-84
2022/08/13 09:56:58;;;;;;;4.60;2.20;;;;;;;30.67;35.18;101098.23;106888;1284;60601;-83
2022/08/13 09:59:28;;;;;;;4.60;2.30;;;;;;;30.78;34.97;101091.80;106738;1283;76957;-84
2022/08/13 10:02:09;;;;;;;4.10;2.60;;;;;;;30.93;34.90;101096.22;106831;1284;71503;-83
2022/08/13 10:04:41;;;;;;;3.30;2.70;;;;;;;31.09;35.49;101091.61;106627;1284;73146;-83
2022/08/13 10:07:12;;;;;;;5.90;2.60;;;;;;;31.23;34.83;101091.40;106760;1283;61968;-84
2022/08/13 10:09:51;;;;;;;4.80;2.80;;;;;;;31.36;34.56;101087.41;106710;1284;62125;-83
2022/08/13 10:12:38;;;;;;;4.90;2.70;;;;;;;31.44;34.03;101085.75;106821;1284;78608;-82
2022/08/13 10:15:10;;;;;;;6.20;2.70;;;;;;;31.39;34.19;101084.98;106787;1282;71354;-84
2022/08/13 10:18:00;;;;;;;6.20;2.60;;;;;;;31.45;34.74;101084.52;107051;1282;73789;-84
2022/08/13 10:20:39;;;;;;;5.40;2.80;;;;;;;31.54;34.25;101087.40;106748;1282;61777;-84
2022/08/13 10:23:10;;;;;;;4.30;2.60;;;;;;;31.63;33.84;101079.63;106858;1282;60674;-84
2022/08/13 10:25:37;;;;;;;4.70;2.70;;;;;;;31.75;33.99;101074.38;107240;1282;76918;-85
2022/08/13 10:28:25;;;;;;;4.70;2.80;;;;;;;31.90;34.08;101077.66;107395;1282;72022;-85
2022/08/13 10:30:58;;;;;;;5.00;2.90;;;;;;;32.00;33.43;101070.48;107119;1282;73000;-85
2022/08/13 10:33:45;;;;;;;4.30;2.80;;;;;;;32.06;33.18;101065.19;107202;1282;63044;-85
2022/08/13 10:36:16;;;;;;;3.10;2.60;;;;;;;32.09;32.93;101059.06;107401;1281;61162;-84
2022/08/13 10:38:44;;;;;;;4.50;2.60;;;;;;;32.16;33.32;101060.11;107081;1282;75706;-85
2022/08/13 10:41:19;;;;;;;3.40;2.40;;;;;;;32.31;32.91;101053.85;106990;1282;70339;-84
2022/08/13 10:43:48;;;;;;;3.40;2.60;;;;;;;32.33;32.58;101050.63;106944;1282;72955;-83
2022/08/13 10:46:24;;;;;;;4.20;2.90;;;;;;;32.10;32.40;101047.96;106986;1282;61155;-85
2022/08/13 10:48:55;;;;;;;5.60;3.10;;;;;;;32.05;33.07;101046.83;106919;1282;62103;-83
2022/08/13 10:51:29;;;;;;;5.40;3.10;;;;;;;32.09;32.85;101038.88;107045;1281;76942;-84
2022/08/13 10:54:02;;;;;;;4.40;3.20;;;;;;;32.25;32.73;101041.94;107125;1282;71549;-83
2022/08/13 10:56:30;;;;;;;3.90;3.20;;;;;;;32.21;32.42;101041.77;107157;1282;72673;-83
2022/08/13 10:59:00;;;;;;;4.90;3.20;;;;;;;32.30;32.59;101044.38;107063;1282;60378;-83
2022/08/13 11:01:28;;;;;;;4.50;3.40;;;;;;;32.51;32.32;101041.60;107187;1282;60595;-84
2022/08/13 11:03:58;;;;;;;5.20;3.30;;;;;;;32.67;31.52;101029.88;106040;1282;1470664;-83
2022/08/13 11:06:32;;;;;;;5.10;3.20;;;;;;;32.86;31.55;101027.83;107294;1281;72677;-83
2022/08/13 11:09:06;;;;;;;3.50;2.90;;;;;;;32.91;31.16;101033.88;107003;1284;74025;-84
2022/08/13 11:11:55;;;;;;;5.70;3.10;;;;;;;32.75;30.84;101030.17;106923;1281;62034;-84
2022/08/13 11:14:29;;;;;;;4.10;3.30;;;;;;;32.57;31.14;101026.31;107093;1283;61863;-83
2022/08/13 11:17:07;;;;;;;4.60;3.10;;;;;;;32.67;31.28;101026.10;107189;1282;75692;-83
2022/08/13 11:19:54;;;;;;;4.00;3.20;;;;;;;32.81;31.29;101023.95;107023;1284;73877;-83
2022/08/13 11:22:29;;;;;;;4.90;3.50;;;;;;;33.00;30.96;101020.08;107125;1282;72849;-84
2022/08/13 11:24:59;;;;;;;4.50;3.10;;;;;;;33.20;31.04;101017.45;107025;1283;61945;-85
2022/08/13 11:27:46;;;;;;;6.00;2.80;;;;;;;33.39;30.48;101013.16;107170;1282;62512;-82
2022/08/13 11:30:19;;;;;;;4.30;2.90;;;;;;;33.52;30.49;101016.45;107106;1282;76488;-84
2022/08/13 11:33:04;;;;;;;4.00;3.00;;;;;;;33.58;29.68;101017.98;107289;1282;71403;-85
2022/08/13 11:35:40;;;;;;;3.40;3.10;;;;;;;33.45;30.16;101008.38;106982;1281;73075;-84
2022/08/13 11:38:15;;;;;;;4.40;2.90;;;;;;;33.51;29.84;101000.88;107152;1284;62103;-83
2022/08/13 11:40:52;;;;;;;3.80;3.30;;;;;;;33.59;30.21;100999.86;106811;1282;60806;-83
2022/08/13 11:43:24;;;;;;;4.00;3.00;;;;;;;33.87;30.56;101005.14;107273;1284;76978;-85
2022/08/13 11:46:11;;;;;;;4.70;3.20;;;;;;;34.08;29.47;100999.98;107099;1282;73444;-85
2022/08/13 11:48:40;;;;;;;3.90;2.90;;;;;;;33.98;29.53;101002.08;106985;1282;74325;-83
2022/08/13 11:51:07;;;;;;;6.20;3.50;;;;;;;33.90;29.22;101000.95;106933;1283;60790;-84
2022/08/13 11:53:34;;;;;;;4.30;2.80;;;;;;;33.90;29.45;101000.09;106736;1282;60627;-84
2022/08/13 11:56:21;;;;;;;3.90;2.70;;;;;;;33.78;29.71;101000.80;107009;1281;78298;-85
2022/08/13 11:58:51;;;;;;;3.60;3.10;;;;;;;33.60;29.44;100994.17;106829;1284;71208;-83
2022/08/13 12:01:25;;;;;;;5.60;3.30;;;;;;;33.46;29.72;100997.36;107156;1281;72723;-84
2022/08/13 12:04:09;;;;;;;4.90;2.90;;;;;;;33.67;30.32;100995.71;106929;1281;62198;-84
2022/08/13 12:06:44;;;;;;;4.00;2.60;;;;;;;34.13;29.48;100991.00;107039;1282;60866;-85
2022/08/13 12:09:16;;;;;;;3.50;2.80;;;;;;;34.53;28.62;100990.92;107116;1283;75871;-84
2022/08/13 12:12:03;;;;;;;3.20;2.80;;;;;;;34.99;28.47;100986.94;107302;1281;73765;-84
2022/08/13 12:14:38;;;;;;;4.90;3.10;;;;;;;34.96;27.76;100983.85;107295;1281;72984;-84
2022/08/13 12:17:05;;;;;;;6.20;3.30;;;;;;;34.69;27.79;100981.23;107292;1284;61968;-85
2022/08/13 12:19:32;;;;;;;4.20;3.10;;;;;;;34.55;27.94;100975.95;106971;1282;62057;-84